Saint Truiden, Belgium

10:41 PM CET on December 21, 2014 (GMT +0100)
IVLAAMSG20 | Change Station
CLOSE
Current Station
Personal Weather Station
Location: Landen, VLAAMS GEWEST
Elevation: 0 ft
Nearby Weather Stations

Elev 0 ft 50.74 °N, 5.08 °E | Updated 11 minutes ago

Mostly Cloudy
Mostly Cloudy
45.3 °F
Feels Like 43 °F
N
4.0
Wind Variable Wind from SW

Today
High -- | Low -- °F
--% Chance of Precip.
Yesterday
High -- | Low -- °F
Precip. -- in
8:38 AM 4:35 PM
Waning Crescent, 0% visible
Pressure 30.30 in
Visibility 6.2 miles
Clouds Few 1400 ft
Mostly Cloudy 2200 ft
Windchill 43 °F
Dew Point 42 °F
Humidity 89%
Rainfall 0.00 in
Snow Depth Not available.
UV 0.0 out of 12
Pollen Not available.
Air Quality Not available.
Flu Activity Not available.
METAR EBLG 212120Z 23019KT 9999 FEW014 BKN022 07/04 Q1026 TEMPO 5000 RADZ

More Conditions Fewer Conditions

Pressure 30.30 in
Visibility 6.2 miles
Clouds Few 1400 ft
Mostly Cloudy 2200 ft
Windchill 43 °F
Dew Point 42 °F
Humidity 89%
Rainfall 0.00 in
Snow Depth Not available.
UV 0.0 out of 12
Pollen Not available.
Air Quality Not available.
Flu Activity Not available.
METAR EBLG 212120Z 23019KT 9999 FEW014 BKN022 07/04 Q1026 TEMPO 5000 RADZ

More Conditions Fewer Conditions

10-Day Weather Forecast

Almanac

Astronomy

Dec. 21, 2014 Rise Set
Actual Time
Civil Twilight
Nautical Twilight
Astronomical Twilight
Moon
Length of Visible Light
Length of Day
Tomorrow will be .
, % of the Moon is Illuminated

Today's Extremes

Country Highs Country Lows

Community

WunderPhotos

Upload Photos

1,779,486 photos uploaded!

WunderBlogs® & News

Nearby

Air Quality

  Air Quality AQ Index Pollutant
Not available.

Snow Depth

Station Depth Elevation

Earthquake Activity

City Distance Mag. Time & Date
Minimum magnitude displayed is 2.5.

Coastal Water Temperatures

Place Temperature

Nearby Weather Stations